TNCM

Details ICAO TNCM (SXM)
Name Princess Juliana Intl
Region Caribbean Netherlands, Aruba, Curaçao, Sint Maarten
Timezone Unknown
Plans Departing 3690
Arriving 5570
Stats Elevation 14 ft / 4 m (AMSL)
Location 18.040900° -63.108900°
Runways 1
Magnetic Variation 14.360° W
Sunrise 2019-03-21 10:17:14 UTC / 2019-03-21 10:17:14 Local
Sunset 2019-03-21 22:24:42 UTC / 2019-03-21 22:24:42 Local
Advertisement - Login to hide

Runways

ID Width Length Bearing (true/mag) Surface Threshold Overrun Markings Lighting
10 148 ft / 45 m 7,553 ft / 2,302 m 81.44° / 95.80° ASPHALT 331 ft / 101 m 164 ft / 50 m PREC-APP EDGE THRESHOLD REIL-OMNI
28 148 ft / 45 m 7,553 ft / 2,302 m 261.45° / 275.81° ASPHALT 0 ft / 0 m 200 ft / 61 m APP EDGE THRESHOLD

Map

Weather


0- 5 10 15 20 25 30 35+ Temperature / °C

Clouds and Precipitation
Forecast for 2019-03-22 00:00 UTC. Updated 5 hours ago

Ground ~20,000 ft ~40,000 ft Winds

METAR

TNCM 220200Z 10005KT 060V140 9999 FEW018 BKN035 26/21 Q1017 A3004 NOSIG

TAF

TNCM 212340Z 2200/2224 10011KT P6SM VCSH FEW016 SCT018 SCT035 TEMPO 2200/2203 -SHRA BKN020 FM221300 11014KT P6SM FEW025 SCT035

Frequencies

Departure 128.95 MHz Juliana Departure
Tower 118.70 MHz Juliana Tower
Recorded 127.65 MHz ATIS
Approach 128.95 MHz Juliana Approach
Warning: Do not use this data for real-world aviation or navigation. No guarantee of current accuracy is given.